Map

Track Data

SID SEASON NUMBER BASIN SUBBASIN NAME ISO_TIME NATURE LAT LON WMO_WIND WMO_PRES WMO_AGENCY TRACK_TYPE DIST2LAND LANDFALL IFLAG USA_AGENCY USA_ATCF_ID USA_LAT USA_LON USA_RECORD USA_STATUS USA_WIND USA_PRES USA_SSHS USA_R34_NE USA_R34_SE USA_R34_SW USA_R34_NW USA_R50_NE USA_R50_SE USA_R50_SW USA_R50_NW USA_R64_NE USA_R64_SE USA_R64_SW USA_R64_NW USA_POCI USA_ROCI USA_RMW USA_EYE TOKYO_LAT TOKYO_LON TOKYO_GRADE TOKYO_WIND TOKYO_PRES TOKYO_R50_DIR TOKYO_R50_LONG TOKYO_R50_SHORT TOKYO_R30_DIR TOKYO_R30_LONG TOKYO_R30_SHORT TOKYO_LAND CMA_LAT CMA_LON CMA_CAT CMA_WIND CMA_PRES HKO_LAT HKO_LON HKO_CAT HKO_WIND HKO_PRES NEWDELHI_LAT NEWDELHI_LON NEWDELHI_GRADE NEWDELHI_WIND NEWDELHI_PRES NEWDELHI_CI NEWDELHI_DP NEWDELHI_POCI REUNION_LAT REUNION_LON REUNION_TYPE REUNION_WIND REUNION_PRES REUNION_TNUM REUNION_CI REUNION_RMW REUNION_R34_NE REUNION_R34_SE REUNION_R34_SW REUNION_R34_NW REUNION_R50_NE REUNION_R50_SE REUNION_R50_SW REUNION_R50_NW REUNION_R64_NE REUNION_R64_SE REUNION_R64_SW REUNION_R64_NW BOM_LAT BOM_LON BOM_TYPE BOM_WIND BOM_PRES BOM_TNUM BOM_CI BOM_RMW BOM_R34_NE BOM_R34_SE BOM_R34_SW BOM_R34_NW BOM_R50_NE BOM_R50_SE BOM_R50_SW BOM_R50_NW BOM_R64_NE BOM_R64_SE BOM_R64_SW BOM_R64_NW BOM_ROCI BOM_POCI BOM_EYE BOM_POS_METHOD BOM_PRES_METHOD NADI_LAT NADI_LON NADI_CAT NADI_WIND NADI_PRES WELLINGTON_LAT WELLINGTON_LON WELLINGTON_WIND WELLINGTON_PRES DS824_LAT DS824_LON DS824_STAGE DS824_WIND DS824_PRES TD9636_LAT TD9636_LON TD9636_STAGE TD9636_WIND TD9636_PRES TD9635_LAT TD9635_LON TD9635_WIND TD9635_PRES TD9635_ROCI NEUMANN_LAT NEUMANN_LON NEUMANN_CLASS NEUMANN_WIND NEUMANN_PRES MLC_LAT MLC_LON MLC_CLASS MLC_WIND MLC_PRES USA_GUST BOM_GUST BOM_GUST_PER REUNION_GUST REUNION_GUST_PER USA_SEAHGT USA_SEARAD_NE USA_SEARAD_SE USA_SEARAD_SW USA_SEARAD_NW STORM_SPEED STORM_DIR
1952034S14055 1952 12 SI MM NOT_NAMED 1952-02-03 06:00:00 TS -14.1000 55.4000 main 541 539 O________OO___ jtwc_sh SH121952 -14.1000 55.4000 -1 -14.1000 55.4000 TC 25 -14.1000 55.4000 7 2 0
1952034S14055 1952 12 SI MM NOT_NAMED 1952-02-03 09:00:00 TS -14.1991 55.4000 main 539 536 P________PP___ SH121952 -14.1900 55.3875 -1 -14.1900 55.3875 TC 25 -14.2172 55.4250 7 2 176
1952034S14055 1952 12 SI MM NOT_NAMED 1952-02-03 12:00:00 TS -14.3125 55.4167 main 536 534 O________OP___ jtwc_sh SH121952 -14.3000 55.4000 -1 -14.3000 55.4000 TC 25 -14.3375 55.4500 7 3 168
1952034S14055 1952 12 SI MM NOT_NAMED 1952-02-03 15:00:00 TS -14.4497 55.4583 main 545 541 P________PP___ SH121952 -14.4425 55.4500 -1 -14.4425 55.4500 TC 30 -14.4641 55.4750 7 3 164
1952034S14055 1952 12 SI MM NOT_NAMED 1952-02-03 18:00:00 TS -14.6000 55.5000 main 541 540 O________OO___ jtwc_sh SH121952 -14.6000 55.5000 -1 -14.6000 55.5000 TC 35 -14.6000 55.5000 2 3 173
1952034S14055 1952 12 SI MM NOT_NAMED 1952-02-03 21:00:00 TS -14.7490 55.5084 main 540 538 P________PP___ SH121952 -14.7500 55.5000 -1 -14.7500 55.5000 TC 35 -14.7469 55.5250 2 3 0
1952034S14055 1952 12 SI MM NOT_NAMED 1952-02-04 00:00:00 TS -14.9000 55.5167 main 538 537 O________OP___ jtwc_sh SH121952 -14.9000 55.5000 -1 -14.9000 55.5000 TC 35 -14.9000 55.5500 2 3 174
1952034S14055 1952 12 SI MM NOT_NAMED 1952-02-04 03:00:00 TS -15.0510 55.5583 main 547 547 P________PP___ SH121952 -15.0500 55.5500 -1 -15.0500 55.5500 TC 35 -15.0531 55.5750 2 3 166
1952034S14055 1952 12 SI MM NOT_NAMED 1952-02-04 06:00:00 TS -15.2000 55.6000 main 547 547 O________OO___ jtwc_sh SH121952 -15.2000 55.6000 -1 -15.2000 55.6000 TC 35 -15.2000 55.6000 2 3 173
1952034S14055 1952 12 SI MM NOT_NAMED 1952-02-04 09:00:00 TS -15.3477 55.6070 main 547 546 P________PP___ SH121952 -15.3575 55.6000 -1 -15.3575 55.6000 TC 35 -15.3281 55.6210 2 3 0
1952034S14055 1952 12 SI MM NOT_NAMED 1952-02-04 12:00:00 TS -15.4833 55.6142 main 546 542 O________OP___ jtwc_sh SH121952 -15.5000 55.6000 -1 -15.5000 55.6000 TC 35 -15.4500 55.6426 2 2 169
1952034S14055 1952 12 SI MM NOT_NAMED 1952-02-04 15:00:00 TS -15.5906 55.6510 main 538 527 P________PP___ SH121952 -15.6000 55.6425 -1 -15.6000 55.6425 TC 35 -15.5719 55.6679 2 2 160
1952034S14055 1952 12 SI MM NOT_NAMED 1952-02-04 18:00:00 TS -15.7000 55.7000 main 527 517 O________OO___ jtwc_sh SH121952 -15.7000 55.7000 -1 -15.7000 55.7000 TC 35 -15.7000 55.7000 2 3 162
1952034S14055 1952 12 SI MM NOT_NAMED 1952-02-04 21:00:00 TS -15.8453 55.7462 main 517 492 P________PP___ SH121952 -15.8425 55.7500 -1 -15.8425 55.7500 TC 35 -15.8509 55.7387 2 3 164
1952034S14055 1952 12 SI MM NOT_NAMED 1952-02-05 00:00:00 TS -16.0025 55.7950 main 492 471 O________OP___ jtwc_sh SH121952 -16.0000 55.8000 -1 -16.0000 55.8000 TC 35 -16.0075 55.7850 2 3 164
1952034S14055 1952 12 SI MM NOT_NAMED 1952-02-05 03:00:00 TS -16.1584 55.8413 main 471 457 P________PP___ SH121952 -16.1575 55.8425 -1 -16.1575 55.8425 TC 35 -16.1603 55.8387 2 3 161
1952034S14055 1952 12 SI MM NOT_NAMED 1952-02-05 06:00:00 TS -16.3000 55.9000 main 457 443 O________OO___ jtwc_sh SH121952 -16.3000 55.9000 -1 -16.3000 55.9000 TC 35 -16.3000 55.9000 2 3 150
1952034S14055 1952 12 SI MM NOT_NAMED 1952-02-05 09:00:00 TS -16.4084 55.9906 main 443 429 P________PP___ SH121952 -16.4075 56.0000 -1 -16.4075 56.0000 TC 35 -16.4103 55.9719 2 3 139
1952034S14055 1952 12 SI MM NOT_NAMED 1952-02-05 12:00:00 TS -16.5025 56.0833 main 429 418 O________OP___ jtwc_sh SH121952 -16.5000 56.1000 -1 -16.5000 56.1000 TC 35 -16.5075 56.0500 2 2 142
1952034S14055 1952 12 SI MM NOT_NAMED 1952-02-05 15:00:00 TS -16.6003 56.1477 main 418 404 P________PP___ SH121952 -16.6000 56.1575 -1 -16.6000 56.1575 TC 35 -16.6010 56.1281 2 2 150
1952034S14055 1952 12 SI MM NOT_NAMED 1952-02-05 18:00:00 TS -16.7000 56.2000 main 404 393 O________OO___ jtwc_sh SH121952 -16.7000 56.2000 -1 -16.7000 56.2000 TC 35 -16.7000 56.2000 2 2 154
1952034S14055 1952 12 SI MM NOT_NAMED 1952-02-05 21:00:00 TS -16.8009 56.2524 main 390 379 P________PP___ SH121952 -16.7925 56.2500 -1 -16.7925 56.2500 TC 35 -16.8178 56.2572 2 2 156
1952034S14055 1952 12 SI MM NOT_NAMED 1952-02-06 00:00:00 TS -16.9142 56.3025 main 379 369 O________OP___ jtwc_sh SH121952 -16.9000 56.3000 -1 -16.9000 56.3000 TC 35 -16.9425 56.3075 2 3 159
1952034S14055 1952 12 SI MM NOT_NAMED 1952-02-06 03:00:00 TS -17.0570 56.3514 main 355 344 P________PP___ SH121952 -17.0500 56.3500 -1 -17.0500 56.3500 TC 35 -17.0709 56.3541 2 3 162
1952034S14055 1952 12 SI MM NOT_NAMED 1952-02-06 06:00:00 TS -17.2000 56.4000 main 344 333 O________OO___ jtwc_sh SH121952 -17.2000 56.4000 -1 -17.2000 56.4000 TC 35 -17.2000 56.4000 2 3 159
1952034S14055 1952 12 SI MM NOT_NAMED 1952-02-06 09:00:00 TS -17.3097 56.4500 main 330 319 P________PP___ SH121952 -17.3000 56.4500 -1 -17.3000 56.4500 TC 35 -17.3291 56.4500 2 2 156
1952034S14055 1952 12 SI MM NOT_NAMED 1952-02-06 12:00:00 TS -17.4192 56.5000 main 319 298 O________OP___ jtwc_sh SH121952 -17.4000 56.5000 -1 -17.4000 56.5000 TC 35 -17.4575 56.5000 2 3 159
1952034S14055 1952 12 SI MM NOT_NAMED 1952-02-06 15:00:00 TS -17.5607 56.5500 main 295 284 P________PP___ SH121952 -17.5500 56.5500 -1 -17.5500 56.5500 TC 35 -17.5822 56.5500 2 3 162
1952034S14055 1952 12 SI MM NOT_NAMED 1952-02-06 18:00:00 TS -17.7000 56.6000 main 284 274 O________OO___ jtwc_sh SH121952 -17.7000 56.6000 -1 -17.7000 56.6000 TC 35 -17.7000 56.6000 2 3 159
1952034S14055 1952 12 SI MM NOT_NAMED 1952-02-06 21:00:00 TS -17.8060 56.6487 main 274 260 P________PP___ SH121952 -17.8075 56.6500 -1 -17.8075 56.6500 TC 35 -17.8031 56.6460 2 2 153
1952034S14055 1952 12 SI MM NOT_NAMED 1952-02-07 00:00:00 TS -17.9000 56.6975 main 260 249 O________OP___ jtwc_sh SH121952 -17.9000 56.7000 -1 -17.9000 56.7000 TC 35 -17.9000 56.6926 2 2 153
1952034S14055 1952 12 SI MM NOT_NAMED 1952-02-07 03:00:00 TS -17.9990 56.7476 main 249 235 P________PP___ SH121952 -18.0000 56.7500 -1 -18.0000 56.7500 TC 35 -17.9969 56.7429 2 2 153
1952034S14055 1952 12 SI MM NOT_NAMED 1952-02-07 06:00:00 TS -18.1000 56.8000 main 235 224 O________OO___ jtwc_sh SH121952 -18.1000 56.8000 -1 -18.1000 56.8000 TC 35 -18.1000 56.8000 2 2 154
1952034S14055 1952 12 SI MM NOT_NAMED 1952-02-07 09:00:00 TS -18.2036 56.8509 main 221 210 P________PP___ SH121952 -18.1925 56.8425 -1 -18.1925 56.8425 TC 35 -18.2259 56.8678 2 2 152
1952034S14055 1952 12 SI MM NOT_NAMED 1952-02-07 12:00:00 TS -18.3192 56.9142 main 210 186 O________OP___ jtwc_sh SH121952 -18.3000 56.9000 -1 -18.3000 56.9000 TC 35 -18.3575 56.9425 2 3 151
1952034S14055 1952 12 SI MM NOT_NAMED 1952-02-07 15:00:00 TS -18.4668 57.0069 main 186 172 P________PP___ SH121952 -18.4575 57.0000 -1 -18.4575 57.0000 TC 35 -18.4853 57.0209 2 3 148
1952034S14055 1952 12 SI MM NOT_NAMED 1952-02-07 18:00:00 TS -18.6000 57.1000 main 172 159 O________OO___ jtwc_sh SH121952 -18.6000 57.1000 -1 -18.6000 57.1000 TC 35 -18.6000 57.1000 2 2 145
1952034S14055 1952 12 SI MM NOT_NAMED 1952-02-07 21:00:00 TS -18.6613 57.1544 main 159 159 P________PP___ SH121952 -18.6575 57.1501 -1 -18.6575 57.1501 TC 35 -18.6690 57.1630 2 2 135
1952034S14055 1952 12 SI MM NOT_NAMED 1952-02-08 00:00:00 TS -18.7091 57.2093 main 159 146 O________OP___ jtwc_sh SH121952 -18.7000 57.2000 -1 -18.7000 57.2000 TC 35 -18.7274 57.2278 2 2 133
1952034S14055 1952 12 SI MM NOT_NAMED 1952-02-08 03:00:00 TS -18.7840 57.2913 main 146 134 P________PP___ SH121952 -18.7775 57.2850 -1 -18.7775 57.2850 TC 35 -18.7971 57.3037 2 3 137
1952034S14055 1952 12 SI MM NOT_NAMED 1952-02-08 06:00:00 TS -18.9000 57.4000 main 134 111 O________OO___ jtwc_sh SH121952 -18.9000 57.4000 -1 -18.9000 57.4000 TC 35 -18.9000 57.4000 2 4 142
1952034S14055 1952 12 SI MM NOT_NAMED 1952-02-08 09:00:00 TS -19.0807 57.5391 main 111 89 P________PP___ SH121952 -19.0850 57.5425 -1 -19.0850 57.5425 TC 35 -19.0722 57.5323 2 5 145
1952034S14055 1952 12 SI MM NOT_NAMED 1952-02-08 12:00:00 TS -19.2925 57.6949 main 89 67 O________OP___ jtwc_sh SH121952 -19.3000 57.7000 -1 -19.3000 57.7000 TC 35 -19.2776 57.6847 2 5 145
1952034S14055 1952 12 SI MM NOT_NAMED 1952-02-08 15:00:00 TS -19.5030 57.8483 main 67 54 P________PP___ SH121952 -19.5075 57.8500 -1 -19.5075 57.8500 TC 35 -19.4941 57.8448 2 5 145
1952034S14055 1952 12 SI MM NOT_NAMED 1952-02-08 18:00:00 TS -19.7000 58.0000 main 54 47 O________OO___ jtwc_sh SH121952 -19.7000 58.0000 -1 -19.7000 58.0000 TC 35 -19.7000 58.0000 2 5 142
1952034S14055 1952 12 SI MM NOT_NAMED 1952-02-08 21:00:00 TS -19.8645 58.1518 main 56 53 P________PP___ SH121952 -19.8575 58.1575 -1 -19.8575 58.1575 TC 35 -19.8784 58.1404 2 4 139
1952034S14055 1952 12 SI MM NOT_NAMED 1952-02-09 00:00:00 TS -20.0108 58.2892 main 62 56 O________OP___ jtwc_sh SH121952 -20.0000 58.3000 -1 -20.0000 58.3000 TC 35 -20.0325 58.2676 2 4 141
1952034S14055 1952 12 SI MM NOT_NAMED 1952-02-09 03:00:00 TS -20.1551 58.4020 main 63 63 P________PP___ SH121952 -20.1475 58.4100 -1 -20.1475 58.4100 TC 35 -20.1703 58.3860 2 4 146
1952034S14055 1952 12 SI MM NOT_NAMED 1952-02-09 06:00:00 TS -20.3000 58.5000 main 72 O________OO___ jtwc_sh SH121952 -20.3000 58.5000 -1 -20.3000 58.5000 TC 35 -20.3000 58.5000 2 3 150

About IBTrACS Database

This database is a web-friendly format of International Best Track Archive for Climate Stewardship (IBTrACS), a global best track data archive curated by NOAA dating back to 1842.

Updated: 2021-10-19